Troy, NY

1:47 PM EDT on July 02, 2015 (GMT -0400)
Brunswick, NY | | Change Station
CLOSE
Current Station
Personal Weather Station
Location: Troy, NY
Elevation: 853 ft
Nearby Weather Stations

Elev 853 ft 42.77 °N, 73.58 °W | Updated 2 minutes ago

Overcast
Overcast
73.7 °F
Feels Like 77 °F
N
12.0
Wind Variable Wind from NW
Gusts 15.0 mph

Today
High -- | Low -- °F
--% Chance of Precip.
Yesterday
High -- | Low -- °F
Precip. -- in
5:20 AM 8:36 PM
Waxing Gibbous, 99% visible
Pressure 29.91 in
Visibility 10.0 miles
Clouds Scattered Clouds 4000 ft
Scattered Clouds 5000 ft
Mostly Cloudy 6500 ft
Heat Index 77 °F
Dew Point 58 °F
Humidity 58%
Rainfall 0.00 in
Snow Depth Not available.
UV 6 out of 12
Pollen 5.70 out of 12
Air Quality Not available.
Flu Activity Not available.
METAR KALB 021651Z 33007KT 10SM SCT040 SCT050 BKN065 23/13 A2991 RMK AO2 SLP126 SCT050 V BKN T02280128

More Conditions Fewer Conditions

Pressure 29.91 in
Visibility 10.0 miles
Clouds Scattered Clouds 4000 ft
Scattered Clouds 5000 ft
Mostly Cloudy 6500 ft
Heat Index 77 °F
Dew Point 58 °F
Humidity 58%
Rainfall 0.00 in
Snow Depth Not available.
UV 6 out of 12
Pollen 5.70 out of 12
Air Quality Not available.
Flu Activity Not available.
METAR KALB 021651Z 33007KT 10SM SCT040 SCT050 BKN065 23/13 A2991 RMK AO2 SLP126 SCT050 V BKN T02280128

More Conditions Fewer Conditions

10-Day Weather Forecast

×

Almanac

Astronomy

Jul. 02, 2015 Rise Set
Actual Time
Civil Twilight
Nautical Twilight
Astronomical Twilight
Moon
Length of Visible Light
Length of Day
Tomorrow will be .
, % of the Moon is Illuminated

Today's Extremes

State Highs State Lows

Community

WunderPhotos

Upload Photos

1,834,506 photos uploaded!

WunderBlogs® & News

Nearby

Air Quality

  Air Quality AQ Index Pollutant
Not available.

Snow Depth

Station Depth Elevation

Earthquake Activity

City Distance Mag. Time & Date
Minimum magnitude displayed is 2.5.

Coastal Water Temperatures

Place Temperature

Stations

Nearby Weather Stations

Station Location Temp. Windchill Dew Point Humidity Wind Precip. Elev Updated Type